createdAt,value
2022-08-29T00:01:53.119Z,102482.00
2022-08-29T00:04:23.442Z,102487.66
2022-08-29T00:06:53.295Z,102488.16
2022-08-29T00:09:23.562Z,102493.00
2022-08-29T00:11:53.314Z,102500.41
2022-08-29T00:14:23.855Z,102500.94
2022-08-29T00:16:54.033Z,102511.41
2022-08-29T00:19:25.194Z,102509.38
2022-08-29T00:21:55.190Z,102512.66
2022-08-29T00:24:25.678Z,102512.25
2022-08-29T00:26:55.468Z,102505.66
2022-08-29T00:29:25.507Z,102502.97
2022-08-29T00:31:55.243Z,102505.72
2022-08-29T00:34:25.315Z,102513.78
2022-08-29T00:36:56.167Z,102512.53
2022-08-29T00:39:25.882Z,102518.50
2022-08-29T00:41:59.017Z,102528.72
2022-08-29T00:44:30.434Z,102524.69
2022-08-29T00:47:04.741Z,102521.19
2022-08-29T00:49:40.501Z,102520.50
2022-08-29T00:52:22.795Z,102530.75
2022-08-29T00:54:56.210Z,102533.59
2022-08-29T00:57:29.960Z,102529.13
2022-08-29T01:00:00.773Z,102530.91
2022-08-29T01:02:31.292Z,102531.09
2022-08-29T01:05:01.496Z,102538.72
2022-08-29T01:07:31.968Z,102535.72
2022-08-29T01:10:13.393Z,102539.63
2022-08-29T01:12:44.305Z,102533.28
2022-08-29T01:15:14.746Z,102529.75
2022-08-29T01:17:48.371Z,102539.66
2022-08-29T01:20:43.924Z,102530.94
2022-08-29T01:23:33.561Z,102513.41
2022-08-29T01:26:05.285Z,102528.69
2022-08-29T01:28:45.990Z,102529.88
2022-08-29T01:31:46.910Z,102530.81
2022-08-29T01:34:16.749Z,102532.03
2022-08-29T01:36:56.824Z,102536.78
2022-08-29T01:39:31.070Z,102534.78
2022-08-29T01:42:05.206Z,102536.88
2022-08-29T01:44:35.673Z,102535.97
2022-08-29T01:47:07.618Z,102531.41
2022-08-29T01:49:40.779Z,102528.97
2022-08-29T01:52:11.978Z,102538.91
2022-08-29T01:54:46.924Z,102544.22
2022-08-29T01:57:19.230Z,102552.53
2022-08-29T01:59:49.812Z,102546.78
2022-08-29T02:02:27.597Z,102554.06
2022-08-29T02:04:59.787Z,102545.28
2022-08-29T02:07:30.695Z,102547.09
2022-08-29T02:10:01.116Z,102552.31
2022-08-29T02:12:32.658Z,102553.00
2022-08-29T02:15:03.540Z,102552.16
2022-08-29T02:17:34.708Z,102558.22
2022-08-29T02:20:11.894Z,102564.44
2022-08-29T02:22:43.339Z,102561.28
2022-08-29T02:25:33.214Z,102568.00
2022-08-29T02:28:05.491Z,102558.09
2022-08-29T02:30:35.962Z,102543.47
2022-08-29T02:33:06.610Z,102563.13
2022-08-29T02:35:42.603Z,102561.75
2022-08-29T02:38:13.706Z,102548.13
2022-08-29T02:40:45.710Z,102563.69
2022-08-29T02:43:17.800Z,102570.06
2022-08-29T02:45:49.303Z,102560.13
2022-08-29T02:48:19.656Z,102559.00
2022-08-29T02:50:52.715Z,102564.84
2022-08-29T02:53:28.225Z,102562.41
2022-08-29T02:55:58.772Z,102562.81
2022-08-29T02:58:29.687Z,102566.00
2022-08-29T03:00:59.840Z,102567.59
2022-08-29T03:03:30.455Z,102560.06
2022-08-29T03:06:00.838Z,102563.06
2022-08-29T03:08:31.338Z,102562.09
2022-08-29T03:11:01.968Z,102567.47
2022-08-29T03:13:32.678Z,102567.47
2022-08-29T03:16:06.181Z,102564.25
2022-08-29T03:18:36.808Z,102566.38
2022-08-29T03:21:06.839Z,102565.81
2022-08-29T03:23:37.448Z,102571.94
2022-08-29T03:26:07.734Z,102571.59
2022-08-29T03:28:38.137Z,102579.25
2022-08-29T03:31:08.772Z,102551.81
2022-08-29T03:33:42.192Z,102577.75
2022-08-29T03:36:14.349Z,102586.59
2022-08-29T03:38:47.457Z,102584.13
2022-08-29T03:41:28.082Z,102584.84
2022-08-29T03:44:00.329Z,102587.25
2022-08-29T03:46:30.444Z,102581.75
2022-08-29T03:49:00.431Z,102588.78
2022-08-29T03:51:32.740Z,102589.09
2022-08-29T03:54:03.228Z,102584.25
2022-08-29T03:56:33.517Z,102570.69
2022-08-29T03:59:04.064Z,102573.75
2022-08-29T04:01:34.110Z,102569.19
2022-08-29T04:04:04.296Z,102568.91
2022-08-29T04:06:35.152Z,102560.75
2022-08-29T04:09:05.716Z,102563.91
2022-08-29T04:11:35.524Z,102564.13
2022-08-29T04:14:06.025Z,102544.09
2022-08-29T04:16:36.085Z,102546.22
2022-08-29T04:19:06.494Z,102560.06
2022-08-29T04:21:38.986Z,102558.44
2022-08-29T04:24:09.447Z,102556.88
2022-08-29T04:26:39.906Z,102557.59
2022-08-29T04:29:12.900Z,102547.81
2022-08-29T04:31:44.897Z,102542.66
2022-08-29T04:34:15.511Z,102547.22
2022-08-29T04:36:49.450Z,102543.97
2022-08-29T04:39:19.972Z,102538.53
2022-08-29T04:41:49.954Z,102539.50
2022-08-29T04:44:20.495Z,102537.47
2022-08-29T04:46:50.561Z,102540.72
2022-08-29T04:49:22.755Z,102532.13
2022-08-29T04:51:55.014Z,102534.75
2022-08-29T04:54:25.471Z,102532.34
2022-08-29T04:56:57.313Z,102526.16
2022-08-29T04:59:28.100Z,102523.72
2022-08-29T05:01:58.929Z,102532.09
2022-08-29T05:04:29.451Z,102525.81
2022-08-29T05:06:59.476Z,102517.41
2022-08-29T05:09:29.893Z,102520.94
2022-08-29T05:11:59.850Z,102517.28
2022-08-29T05:14:30.312Z,102515.50
2022-08-29T05:17:00.324Z,102513.75
2022-08-29T05:19:34.585Z,102511.88
2022-08-29T05:22:05.622Z,102504.78
2022-08-29T05:24:38.477Z,102505.16
2022-08-29T05:27:17.111Z,102501.25
2022-08-29T05:29:49.681Z,102499.91
2022-08-29T05:32:20.681Z,102492.88
2022-08-29T05:34:51.595Z,102487.38
2022-08-29T05:37:23.502Z,102484.69
2022-08-29T05:39:54.188Z,102485.31
2022-08-29T05:42:24.970Z,102473.00
2022-08-29T05:44:55.932Z,102480.50
2022-08-29T05:47:26.543Z,102481.72
2022-08-29T05:49:57.185Z,102484.91
2022-08-29T05:52:28.185Z,102476.66
2022-08-29T05:54:58.674Z,102473.50
2022-08-29T05:57:28.710Z,102470.38
2022-08-29T05:59:59.109Z,102464.75
2022-08-29T06:02:29.284Z,102451.94
2022-08-29T06:05:00.295Z,102463.66
2022-08-29T06:07:31.908Z,102448.31
2022-08-29T06:10:07.798Z,102457.94
2022-08-29T06:12:38.822Z,102456.91
2022-08-29T06:15:09.608Z,102463.13
2022-08-29T06:17:39.916Z,102460.03
2022-08-29T06:20:11.229Z,102454.28
2022-08-29T06:22:41.635Z,102447.28
2022-08-29T06:25:37.447Z,102441.28
2022-08-29T06:28:02.845Z,102442.53
2022-08-29T06:30:34.747Z,102439.53
2022-08-29T06:33:05.204Z,102433.72
2022-08-29T06:35:35.594Z,102424.41
2022-08-29T06:38:05.423Z,102423.41
2022-08-29T06:40:35.923Z,102419.78
2022-08-29T06:43:06.046Z,102409.72
2022-08-29T06:45:43.326Z,102416.34
2022-08-29T06:48:13.948Z,102415.84
2022-08-29T06:50:45.865Z,102415.31
2022-08-29T06:53:27.324Z,102420.75
2022-08-29T06:56:11.463Z,102419.28
2022-08-29T06:58:42.537Z,102425.34
2022-08-29T07:01:19.535Z,102422.09
2022-08-29T07:03:49.606Z,102422.66
2022-08-29T07:06:19.799Z,102430.44
2022-08-29T07:08:55.910Z,102426.53
2022-08-29T07:11:28.054Z,102427.84
2022-08-29T07:14:01.803Z,102422.16
2022-08-29T07:16:33.123Z,102424.09
2022-08-29T07:19:09.002Z,102426.72
2022-08-29T07:21:39.820Z,102423.22
2022-08-29T07:24:10.428Z,102426.78
2022-08-29T07:26:44.966Z,102433.16
2022-08-29T07:29:19.030Z,102433.75
2022-08-29T07:31:49.817Z,102437.81
2022-08-29T07:34:23.678Z,102414.09
2022-08-29T07:36:54.086Z,102431.19
2022-08-29T07:39:25.195Z,102431.94
2022-08-29T07:41:55.338Z,102427.22
2022-08-29T07:44:30.280Z,102432.94
2022-08-29T07:47:04.850Z,102431.88
2022-08-29T07:49:40.919Z,102441.94
2022-08-29T07:52:11.740Z,102435.91
2022-08-29T07:54:42.222Z,102443.38
2022-08-29T07:57:12.414Z,102444.13
2022-08-29T07:59:42.871Z,102443.53
2022-08-29T08:02:12.993Z,102435.72
2022-08-29T08:04:42.971Z,102441.78
2022-08-29T08:07:14.116Z,102442.00
2022-08-29T08:09:45.418Z,102448.16
2022-08-29T08:12:15.552Z,102451.84
2022-08-29T08:14:45.930Z,102456.34
2022-08-29T08:17:16.502Z,102460.47
2022-08-29T08:19:49.884Z,102462.00
2022-08-29T08:22:20.662Z,102458.50
2022-08-29T08:24:51.091Z,102459.69
2022-08-29T08:27:21.543Z,102457.41
2022-08-29T08:29:52.345Z,102459.38
2022-08-29T08:32:27.603Z,102463.88
2022-08-29T08:35:03.135Z,102467.84
2022-08-29T08:37:33.156Z,102472.59
2022-08-29T08:40:03.307Z,102464.97
2022-08-29T08:42:43.676Z,102472.88
2022-08-29T08:45:27.939Z,102469.19
2022-08-29T08:48:07.250Z,102468.00
2022-08-29T08:50:45.668Z,102474.66
2022-08-29T08:53:45.520Z,102479.88
2022-08-29T08:56:30.218Z,102483.28
2022-08-29T08:59:06.444Z,102474.94
2022-08-29T09:01:44.515Z,102478.91
2022-08-29T09:04:28.555Z,102478.72
2022-08-29T09:07:06.941Z,102489.19
2022-08-29T09:10:21.265Z,102501.78
2022-08-29T09:13:25.002Z,102504.56
2022-08-29T09:15:59.646Z,102496.88
2022-08-29T09:18:52.651Z,102490.78
2022-08-29T09:21:42.103Z,102505.94
2022-08-29T09:24:22.527Z,102513.69
2022-08-29T09:26:52.638Z,102520.19
2022-08-29T09:29:31.602Z,102517.19
2022-08-29T09:32:22.471Z,102511.66
2022-08-29T09:35:09.495Z,102515.97
2022-08-29T09:37:40.749Z,102514.50
2022-08-29T09:40:19.388Z,102524.91
2022-08-29T09:43:03.127Z,102529.63
2022-08-29T09:45:33.199Z,102531.00
2022-08-29T09:48:15.706Z,102517.97
2022-08-29T09:50:46.525Z,102538.06
2022-08-29T09:53:25.557Z,102529.75
2022-08-29T09:55:56.018Z,102528.69
2022-08-29T09:58:26.535Z,102544.00
2022-08-29T10:01:26.231Z,102542.59
2022-08-29T10:04:04.745Z,102542.50
2022-08-29T10:06:46.153Z,102546.44
2022-08-29T10:09:29.947Z,102543.31
2022-08-29T10:12:13.673Z,102540.47
2022-08-29T10:14:56.054Z,102547.72
2022-08-29T10:17:55.829Z,102548.94
2022-08-29T10:20:50.838Z,102556.25
2022-08-29T10:24:02.063Z,102560.44
2022-08-29T10:27:01.664Z,102558.53
2022-08-29T10:29:40.866Z,102560.13
2022-08-29T10:32:58.657Z,102563.59
2022-08-29T10:35:38.667Z,102560.44
2022-08-29T10:38:21.002Z,102574.09
2022-08-29T10:40:59.955Z,102577.84
2022-08-29T10:43:39.489Z,102577.69
2022-08-29T10:46:09.718Z,102539.75
2022-08-29T10:48:47.547Z,102587.72
2022-08-29T10:51:23.615Z,102602.25
2022-08-29T10:54:06.248Z,102605.66
2022-08-29T10:56:44.322Z,102607.09
2022-08-29T10:59:49.307Z,102610.38
2022-08-29T11:02:29.615Z,102607.38
2022-08-29T11:05:04.418Z,102607.25
2022-08-29T11:07:41.294Z,102594.75
2022-08-29T11:10:25.272Z,102613.50
2022-08-29T11:13:09.350Z,102619.41
2022-08-29T11:15:48.837Z,102609.19
2022-08-29T11:18:33.379Z,102621.06
2022-08-29T11:21:20.228Z,102623.72
2022-08-29T11:23:50.447Z,102630.63
2022-08-29T11:26:24.369Z,102641.38
2022-08-29T11:29:08.930Z,102633.09
2022-08-29T11:32:03.229Z,102636.38
2022-08-29T11:34:57.633Z,102631.63
2022-08-29T11:38:05.239Z,102643.53
2022-08-29T11:43:49.192Z,102651.34
2022-08-29T11:46:38.699Z,102664.66
2022-08-29T11:49:23.904Z,102666.03
2022-08-29T11:52:01.261Z,102674.09
2022-08-29T11:54:50.596Z,102668.72
2022-08-29T11:57:20.771Z,102673.97
2022-08-29T11:59:52.000Z,102670.66
2022-08-29T12:02:34.380Z,102687.78
2022-08-29T12:05:21.882Z,102688.53
2022-08-29T12:08:26.170Z,102669.78
2022-08-29T12:10:59.200Z,102695.41
2022-08-29T12:13:48.181Z,102688.81
2022-08-29T12:16:52.379Z,102699.44
2022-08-29T12:19:53.776Z,102707.69
2022-08-29T12:22:47.405Z,102705.56
2022-08-29T12:25:39.411Z,102709.88
2022-08-29T12:28:19.230Z,102698.56
2022-08-29T12:31:05.407Z,102703.25
2022-08-29T12:34:03.865Z,102706.47
2022-08-29T12:36:57.243Z,102696.31
2022-08-29T12:40:01.600Z,102713.91
2022-08-29T12:42:53.340Z,102713.06
2022-08-29T12:45:32.964Z,102710.78
2022-08-29T12:48:13.205Z,102722.19
2022-08-29T12:50:49.176Z,102719.50
2022-08-29T12:53:27.337Z,102728.09
2022-08-29T12:56:18.544Z,102729.69
2022-08-29T12:58:57.142Z,102730.41
2022-08-29T13:01:32.502Z,102732.13
2022-08-29T13:04:20.720Z,102734.09
2022-08-29T13:07:05.363Z,102735.13
2022-08-29T13:09:35.025Z,102745.09
2022-08-29T13:12:33.619Z,102751.75
2022-08-29T13:15:09.478Z,102743.47
2022-08-29T13:17:43.992Z,102737.94
2022-08-29T13:20:47.131Z,102737.16
2022-08-29T13:23:36.511Z,102734.81
2022-08-29T13:26:13.002Z,102733.34
2022-08-29T13:28:47.742Z,102733.72
2022-08-29T13:31:18.189Z,102739.72
2022-08-29T13:34:00.635Z,102737.47
2022-08-29T13:36:39.715Z,102742.38
2022-08-29T13:39:19.695Z,102751.63
2022-08-29T13:42:17.994Z,102738.25
2022-08-29T13:44:54.463Z,102772.06
2022-08-29T13:47:28.542Z,102769.63
2022-08-29T13:50:09.727Z,102775.47
2022-08-29T13:52:40.102Z,102752.78
2022-08-29T13:55:12.093Z,102767.31
2022-08-29T13:57:44.989Z,102766.16
2022-08-29T14:00:17.119Z,102760.16
2022-08-29T14:02:47.737Z,102760.31
2022-08-29T14:05:18.713Z,102747.53
2022-08-29T14:07:49.290Z,102754.25
2022-08-29T14:10:21.035Z,102745.56
2022-08-29T14:12:51.320Z,102754.13
2022-08-29T14:15:22.324Z,102753.00
2022-08-29T14:17:52.506Z,102748.72
2022-08-29T14:20:23.790Z,102748.91
2022-08-29T14:22:54.255Z,102736.84
2022-08-29T14:25:25.539Z,102742.56
2022-08-29T14:27:56.571Z,102720.91
2022-08-29T14:30:27.541Z,102722.97
2022-08-29T14:32:57.955Z,102714.78
2022-08-29T14:35:31.914Z,102706.97
2022-08-29T14:38:04.722Z,102707.69
2022-08-29T14:40:41.988Z,102705.75
2022-08-29T14:43:13.334Z,102693.53
2022-08-29T14:45:44.071Z,102702.81
2022-08-29T14:48:14.493Z,102690.22
2022-08-29T14:50:45.527Z,102676.59
2022-08-29T14:53:16.069Z,102695.97
2022-08-29T14:55:46.834Z,102694.31
2022-08-29T14:58:17.483Z,102695.50
2022-08-29T15:00:48.319Z,102679.53
2022-08-29T15:03:20.619Z,102669.41
2022-08-29T15:05:51.401Z,102660.72
2022-08-29T15:08:21.860Z,102657.53
2022-08-29T15:10:52.790Z,102663.84
2022-08-29T15:13:25.504Z,102661.28
2022-08-29T15:15:56.481Z,102654.81
2022-08-29T15:19:05.477Z,102657.78
2022-08-29T15:21:20.608Z,102659.22
2022-08-29T15:23:50.804Z,102653.75
2022-08-29T15:26:21.601Z,102643.28
2022-08-29T15:28:52.127Z,102650.22
2022-08-29T15:31:23.605Z,102652.44
2022-08-29T15:33:53.918Z,102649.88
2022-08-29T15:36:24.688Z,102650.53
2022-08-29T15:38:55.056Z,102637.53
2022-08-29T15:41:25.811Z,102636.88
2022-08-29T15:43:55.989Z,102638.25
2022-08-29T15:46:27.043Z,102630.91
2022-08-29T15:48:57.872Z,102627.13
2022-08-29T15:51:28.570Z,102629.31
2022-08-29T15:53:58.778Z,102617.25
2022-08-29T15:56:36.265Z,102612.00
2022-08-29T15:59:09.056Z,102612.50
2022-08-29T16:01:47.693Z,102602.97
2022-08-29T16:04:23.386Z,102607.88
2022-08-29T16:06:54.887Z,102600.00
2022-08-29T16:09:25.201Z,102594.59
2022-08-29T16:11:56.167Z,102597.06
2022-08-29T16:17:17.666Z,102582.72
2022-08-29T16:19:47.967Z,102578.22
2022-08-29T16:22:18.694Z,102582.72
2022-08-29T16:24:49.338Z,102576.84
2022-08-29T16:27:24.442Z,102565.28
2022-08-29T16:29:56.001Z,102566.75
2022-08-29T16:32:26.738Z,102563.16
2022-08-29T16:34:59.755Z,102555.38
2022-08-29T16:37:30.441Z,102559.34
2022-08-29T16:40:01.596Z,102550.66
2022-08-29T16:42:32.463Z,102557.69
2022-08-29T16:45:02.871Z,102541.50
2022-08-29T16:47:33.976Z,102553.16
2022-08-29T16:50:05.735Z,102542.22
2022-08-29T16:52:36.566Z,102535.25
2022-08-29T16:55:07.687Z,102540.28
2022-08-29T16:57:38.597Z,102528.31
2022-08-29T17:00:13.014Z,102534.00
2022-08-29T17:02:43.772Z,102527.19
2022-08-29T17:05:14.064Z,102526.94
2022-08-29T17:07:44.500Z,102524.38
2022-08-29T17:10:14.215Z,102521.16
2022-08-29T17:12:44.703Z,102519.94
2022-08-29T17:15:14.072Z,102521.91
2022-08-29T17:17:44.139Z,102514.38
2022-08-29T17:20:16.206Z,102517.34
2022-08-29T17:22:46.425Z,102514.47
2022-08-29T17:25:17.049Z,102496.91
2022-08-29T17:28:01.010Z,102499.16
2022-08-29T17:30:38.598Z,102505.00
2022-08-29T17:33:11.922Z,102496.03
2022-08-29T17:35:42.812Z,102506.88
2022-08-29T17:38:15.669Z,102504.09
2022-08-29T17:40:47.378Z,102504.19
2022-08-29T17:43:20.383Z,102498.22
2022-08-29T17:45:51.151Z,102492.22
2022-08-29T17:48:22.104Z,102495.78
2022-08-29T17:50:53.058Z,102497.44
2022-08-29T17:53:23.560Z,102493.28
2022-08-29T17:55:55.134Z,102493.19
2022-08-29T17:58:28.419Z,102488.66
2022-08-29T18:00:59.160Z,102483.97
2022-08-29T18:03:29.529Z,102485.00
2022-08-29T18:06:00.223Z,102480.22
2022-08-29T18:08:31.228Z,102485.25
2022-08-29T18:11:02.467Z,102485.13
2022-08-29T18:13:32.876Z,102483.28
2022-08-29T18:16:03.764Z,102475.72
2022-08-29T18:18:36.193Z,102479.56
2022-08-29T18:21:07.099Z,102479.19
2022-08-29T18:23:38.031Z,102468.38
2022-08-29T18:26:08.798Z,102474.63
2022-08-29T18:28:39.106Z,102475.84
2022-08-29T18:31:12.540Z,102473.13
2022-08-29T18:34:04.392Z,102475.31
2022-08-29T18:36:37.458Z,102471.38
2022-08-29T18:39:09.046Z,102468.69
2022-08-29T18:41:39.793Z,102473.22
2022-08-29T18:44:13.842Z,102469.88
2022-08-29T18:46:46.324Z,102478.25
2022-08-29T18:49:20.882Z,102478.41
2022-08-29T18:51:51.502Z,102474.03
2022-08-29T18:54:24.113Z,102480.66
2022-08-29T18:56:57.601Z,102476.56
2022-08-29T18:59:30.802Z,102478.56
2022-08-29T19:02:01.662Z,102482.63
2022-08-29T19:04:33.151Z,102488.94
2022-08-29T19:07:03.838Z,102476.91
2022-08-29T19:09:35.586Z,102478.09
2022-08-29T19:12:06.922Z,102480.22
2022-08-29T19:14:46.155Z,102489.38
2022-08-29T19:17:16.501Z,102486.06
2022-08-29T19:20:10.206Z,102463.66
2022-08-29T19:22:41.255Z,102487.94
2022-08-29T19:25:12.046Z,102490.19
2022-08-29T19:27:43.925Z,102490.63
2022-08-29T19:30:16.748Z,102494.81
2022-08-29T19:32:47.435Z,102496.13
2022-08-29T19:35:17.639Z,102499.78
2022-08-29T19:37:48.641Z,102497.75
2022-08-29T19:40:21.001Z,102503.00
2022-08-29T19:42:52.010Z,102493.31
2022-08-29T19:45:22.148Z,102497.59
2022-08-29T19:47:53.534Z,102497.22
2022-08-29T19:50:25.935Z,102501.25
2022-08-29T19:52:57.383Z,102493.75
2022-08-29T19:55:28.025Z,102481.66
2022-08-29T19:57:58.547Z,102508.16
2022-08-29T20:00:28.714Z,102507.84
2022-08-29T20:03:04.536Z,102503.72
2022-08-29T20:05:34.692Z,102506.75
2022-08-29T20:08:06.112Z,102504.13
2022-08-29T20:10:36.423Z,102512.28
2022-08-29T20:13:07.793Z,102516.50
2022-08-29T20:15:37.820Z,102511.31
2022-08-29T20:18:11.234Z,102486.88
2022-08-29T20:20:43.295Z,102504.31
2022-08-29T20:23:14.535Z,102506.06
2022-08-29T20:25:45.172Z,102503.41
2022-08-29T20:28:16.247Z,102516.38
2022-08-29T20:30:46.563Z,102513.88
2022-08-29T20:33:21.030Z,102518.94
2022-08-29T20:36:10.151Z,102515.47
2022-08-29T20:38:40.599Z,102514.31
2022-08-29T20:41:10.607Z,102513.13
2022-08-29T20:43:42.006Z,102513.91
2022-08-29T20:46:13.900Z,102512.06
2022-08-29T20:48:44.578Z,102506.06
2022-08-29T20:51:15.242Z,102507.06
2022-08-29T20:53:45.685Z,102501.75
2022-08-29T20:56:15.819Z,102512.66
2022-08-29T20:58:47.143Z,102502.28
2022-08-29T21:01:19.535Z,102505.31
2022-08-29T21:04:08.061Z,102502.81
2022-08-29T21:06:40.795Z,102509.69
2022-08-29T21:09:11.267Z,102504.78
2022-08-29T21:11:41.315Z,102511.75
2022-08-29T21:14:11.400Z,102508.28
2022-08-29T21:16:41.151Z,102521.41
2022-08-29T21:19:12.185Z,102510.84
2022-08-29T21:21:42.305Z,102516.56
2022-08-29T21:24:13.032Z,102513.63
2022-08-29T21:26:43.156Z,102516.22
2022-08-29T21:29:13.687Z,102516.66
2022-08-29T21:31:44.099Z,102525.91
2022-08-29T21:34:15.133Z,102523.38
2022-08-29T21:36:45.603Z,102506.19
2022-08-29T21:39:23.325Z,102536.78
2022-08-29T21:42:01.460Z,102532.28
2022-08-29T21:44:33.482Z,102533.50
2022-08-29T21:47:06.005Z,102532.84
2022-08-29T21:49:36.795Z,102537.88
2022-08-29T21:52:06.808Z,102530.91
2022-08-29T21:54:37.225Z,102535.13
2022-08-29T21:57:07.960Z,102537.28
2022-08-29T21:59:38.324Z,102528.22
2022-08-29T22:02:08.582Z,102545.34
2022-08-29T22:04:39.070Z,102543.50
2022-08-29T22:07:10.366Z,102544.00
2022-08-29T22:09:40.859Z,102542.00
2022-08-29T22:12:10.896Z,102540.25
2022-08-29T22:15:13.255Z,102547.31
2022-08-29T22:17:44.334Z,102555.38
2022-08-29T22:20:15.008Z,102549.25
2022-08-29T22:22:45.146Z,102549.84
2022-08-29T22:25:15.686Z,102556.22
2022-08-29T22:27:45.902Z,102560.22
2022-08-29T22:30:17.083Z,102567.72
2022-08-29T22:32:52.813Z,102563.59
2022-08-29T22:35:24.544Z,102552.28
2022-08-29T22:37:54.623Z,102557.06
2022-08-29T22:40:26.521Z,102563.88
2022-08-29T22:42:57.681Z,102563.00
2022-08-29T22:45:28.118Z,102564.94
2022-08-29T22:47:58.142Z,102566.22
2022-08-29T22:50:28.660Z,102564.75
2022-08-29T22:53:02.878Z,102574.19
2022-08-29T22:55:33.598Z,102575.78
2022-08-29T22:58:07.311Z,102569.25
2022-08-29T23:00:37.794Z,102558.63
2022-08-29T23:03:08.031Z,102571.88
2022-08-29T23:05:37.991Z,102573.22
2022-08-29T23:08:07.770Z,102571.72
2022-08-29T23:10:37.751Z,102574.16
2022-08-29T23:13:08.101Z,102572.31
2022-08-29T23:15:38.424Z,102577.31
2022-08-29T23:18:08.842Z,102578.16
2022-08-29T23:20:38.850Z,102579.41
2022-08-29T23:23:09.310Z,102580.25
2022-08-29T23:25:39.462Z,102578.31
2022-08-29T23:28:09.945Z,102581.63
2022-08-29T23:30:40.434Z,102580.75
2022-08-29T23:33:10.931Z,102584.41
2022-08-29T23:35:41.066Z,102586.00
2022-08-29T23:38:12.084Z,102581.44
2022-08-29T23:40:45.035Z,102584.25
2022-08-29T23:43:15.593Z,102587.28
2022-08-29T23:45:45.727Z,102588.69
2022-08-29T23:48:16.940Z,102589.72
2022-08-29T23:50:52.738Z,102586.03
2022-08-29T23:53:24.799Z,102594.16
2022-08-29T23:55:55.140Z,102585.47
2022-08-29T23:58:25.623Z,102588.22
